sensor_id;sensor_type;location;lat;lon;timestamp;P1;durP1;ratioP1;P2;durP2;ratioP2
9445;SDS011;4761;49.490;10.908;2022-12-29T00:01:58;1.60;;;1.10;;
9445;SDS011;4761;49.490;10.908;2022-12-29T00:04:24;0.87;;;0.87;;
9445;SDS011;4761;49.490;10.908;2022-12-29T00:06:49;1.20;;;1.10;;
9445;SDS011;4761;49.490;10.908;2022-12-29T00:09:15;1.10;;;1.00;;
9445;SDS011;4761;49.490;10.908;2022-12-29T00:11:41;1.83;;;1.27;;
9445;SDS011;4761;49.490;10.908;2022-12-29T00:14:10;1.27;;;1.00;;
9445;SDS011;4761;49.490;10.908;2022-12-29T00:16:55;1.10;;;1.00;;
9445;SDS011;4761;49.490;10.908;2022-12-29T00:19:21;1.50;;;1.13;;
9445;SDS011;4761;49.490;10.908;2022-12-29T00:22:05;1.20;;;1.00;;
9445;SDS011;4761;49.490;10.908;2022-12-29T00:24:49;1.47;;;1.07;;
9445;SDS011;4761;49.490;10.908;2022-12-29T00:27:30;1.63;;;1.00;;
9445;SDS011;4761;49.490;10.908;2022-12-29T00:30:19;1.00;;;0.90;;
9445;SDS011;4761;49.490;10.908;2022-12-29T00:33:11;1.17;;;1.07;;
9445;SDS011;4761;49.490;10.908;2022-12-29T00:36:04;1.20;;;1.10;;
9445;SDS011;4761;49.490;10.908;2022-12-29T00:38:40;1.40;;;1.20;;
9445;SDS011;4761;49.490;10.908;2022-12-29T00:41:33;1.60;;;0.90;;
9445;SDS011;4761;49.490;10.908;2022-12-29T00:44:24;0.87;;;0.87;;
9445;SDS011;4761;49.490;10.908;2022-12-29T00:46:50;1.57;;;1.20;;
9445;SDS011;4761;49.490;10.908;2022-12-29T00:49:16;1.20;;;1.00;;
9445;SDS011;4761;49.490;10.908;2022-12-29T00:52:00;1.00;;;0.90;;
9445;SDS011;4761;49.490;10.908;2022-12-29T00:54:35;2.17;;;1.20;;
9445;SDS011;4761;49.490;10.908;2022-12-29T00:57:02;1.30;;;1.20;;
9445;SDS011;4761;49.490;10.908;2022-12-29T00:59:28;0.97;;;0.87;;
9445;SDS011;4761;49.490;10.908;2022-12-29T01:01:54;1.27;;;1.17;;
9445;SDS011;4761;49.490;10.908;2022-12-29T01:04:20;1.20;;;1.10;;
9445;SDS011;4761;49.490;10.908;2022-12-29T01:06:47;1.10;;;1.00;;
9445;SDS011;4761;49.490;10.908;2022-12-29T01:09:13;0.87;;;0.87;;
9445;SDS011;4761;49.490;10.908;2022-12-29T01:11:57;1.07;;;0.90;;
9445;SDS011;4761;49.490;10.908;2022-12-29T01:14:23;1.00;;;0.97;;
9445;SDS011;4761;49.490;10.908;2022-12-29T01:16:49;1.00;;;0.90;;
9445;SDS011;4761;49.490;10.908;2022-12-29T01:19:15;1.00;;;0.90;;
9445;SDS011;4761;49.490;10.908;2022-12-29T01:21:41;1.10;;;1.00;;
9445;SDS011;4761;49.490;10.908;2022-12-29T01:24:07;1.30;;;1.07;;
9445;SDS011;4761;49.490;10.908;2022-12-29T01:26:33;1.00;;;0.90;;
9445;SDS011;4761;49.490;10.908;2022-12-29T01:28:58;1.40;;;0.93;;
9445;SDS011;4761;49.490;10.908;2022-12-29T01:31:24;1.10;;;1.00;;
9445;SDS011;4761;49.490;10.908;2022-12-29T01:33:49;1.03;;;0.93;;
9445;SDS011;4761;49.490;10.908;2022-12-29T01:36:16;1.00;;;0.90;;
9445;SDS011;4761;49.490;10.908;2022-12-29T01:38:42;1.20;;;0.90;;
9445;SDS011;4761;49.490;10.908;2022-12-29T01:41:09;2.00;;;1.47;;
9445;SDS011;4761;49.490;10.908;2022-12-29T01:43:46;0.80;;;0.80;;
9445;SDS011;4761;49.490;10.908;2022-12-29T01:46:21;1.37;;;1.00;;
9445;SDS011;4761;49.490;10.908;2022-12-29T01:51:30;1.10;;;1.00;;
9445;SDS011;4761;49.490;10.908;2022-12-29T01:53:58;1.67;;;1.00;;
9445;SDS011;4761;49.490;10.908;2022-12-29T01:56:27;1.10;;;1.00;;
9445;SDS011;4761;49.490;10.908;2022-12-29T01:59:04;0.90;;;0.80;;
9445;SDS011;4761;49.490;10.908;2022-12-29T02:01:33;1.07;;;0.97;;
9445;SDS011;4761;49.490;10.908;2022-12-29T02:03:59;1.27;;;0.97;;
9445;SDS011;4761;49.490;10.908;2022-12-29T02:06:29;0.70;;;0.70;;
9445;SDS011;4761;49.490;10.908;2022-12-29T02:09:00;1.70;;;1.10;;
9445;SDS011;4761;49.490;10.908;2022-12-29T02:11:26;0.90;;;0.73;;
9445;SDS011;4761;49.490;10.908;2022-12-29T02:13:53;0.70;;;0.70;;
9445;SDS011;4761;49.490;10.908;2022-12-29T02:16:29;0.90;;;0.80;;
9445;SDS011;4761;49.490;10.908;2022-12-29T02:21:52;0.77;;;0.77;;
9445;SDS011;4761;49.490;10.908;2022-12-29T02:24:36;1.40;;;0.90;;
9445;SDS011;4761;49.490;10.908;2022-12-29T02:35:56;0.80;;;0.80;;
9445;SDS011;4761;49.490;10.908;2022-12-29T02:44:02;1.10;;;0.83;;
9445;SDS011;4761;49.490;10.908;2022-12-29T02:46:34;0.93;;;0.90;;
9445;SDS011;4761;49.490;10.908;2022-12-29T02:49:07;0.80;;;0.80;;
9445;SDS011;4761;49.490;10.908;2022-12-29T02:51:53;1.30;;;0.90;;
9445;SDS011;4761;49.490;10.908;2022-12-29T02:54:25;0.90;;;0.70;;
9445;SDS011;4761;49.490;10.908;2022-12-29T02:59:48;0.80;;;0.80;;
9445;SDS011;4761;49.490;10.908;2022-12-29T03:02:30;0.80;;;0.80;;
9445;SDS011;4761;49.490;10.908;2022-12-29T03:05:43;0.80;;;0.80;;
9445;SDS011;4761;49.490;10.908;2022-12-29T03:11:10;0.87;;;0.80;;
9445;SDS011;4761;49.490;10.908;2022-12-29T03:14:02;0.77;;;0.77;;
9445;SDS011;4761;49.490;10.908;2022-12-29T03:17:24;0.80;;;0.80;;
9445;SDS011;4761;49.490;10.908;2022-12-29T03:19:58;1.07;;;0.80;;
9445;SDS011;4761;49.490;10.908;2022-12-29T03:22:27;1.57;;;0.80;;
9445;SDS011;4761;49.490;10.908;2022-12-29T03:25:01;1.00;;;0.90;;
9445;SDS011;4761;49.490;10.908;2022-12-29T03:27:52;1.23;;;0.90;;
9445;SDS011;4761;49.490;10.908;2022-12-29T03:30:20;0.70;;;0.70;;
9445;SDS011;4761;49.490;10.908;2022-12-29T03:32:50;0.70;;;0.70;;
9445;SDS011;4761;49.490;10.908;2022-12-29T03:35:20;0.80;;;0.80;;
9445;SDS011;4761;49.490;10.908;2022-12-29T03:40:24;1.00;;;0.80;;
9445;SDS011;4761;49.490;10.908;2022-12-29T03:42:52;1.67;;;0.90;;
9445;SDS011;4761;49.490;10.908;2022-12-29T03:45:19;0.67;;;0.60;;
9445;SDS011;4761;49.490;10.908;2022-12-29T03:47:44;0.83;;;0.73;;
9445;SDS011;4761;49.490;10.908;2022-12-29T03:50:11;1.10;;;1.00;;
9445;SDS011;4761;49.490;10.908;2022-12-29T03:52:37;0.87;;;0.80;;
9445;SDS011;4761;49.490;10.908;2022-12-29T03:55:03;1.00;;;0.90;;
9445;SDS011;4761;49.490;10.908;2022-12-29T03:57:29;0.80;;;0.80;;
9445;SDS011;4761;49.490;10.908;2022-12-29T03:59:54;1.17;;;0.70;;
9445;SDS011;4761;49.490;10.908;2022-12-29T04:02:20;1.27;;;0.80;;
9445;SDS011;4761;49.490;10.908;2022-12-29T04:04:46;0.70;;;0.70;;
9445;SDS011;4761;49.490;10.908;2022-12-29T04:07:11;0.93;;;0.80;;
9445;SDS011;4761;49.490;10.908;2022-12-29T04:09:37;0.80;;;0.80;;
9445;SDS011;4761;49.490;10.908;2022-12-29T04:12:02;0.93;;;0.80;;
9445;SDS011;4761;49.490;10.908;2022-12-29T04:14:28;0.80;;;0.70;;
9445;SDS011;4761;49.490;10.908;2022-12-29T04:16:53;0.80;;;0.80;;
9445;SDS011;4761;49.490;10.908;2022-12-29T04:19:19;0.77;;;0.70;;
9445;SDS011;4761;49.490;10.908;2022-12-29T04:21:44;0.80;;;0.80;;
9445;SDS011;4761;49.490;10.908;2022-12-29T04:24:10;2.50;;;1.10;;
9445;SDS011;4761;49.490;10.908;2022-12-29T04:26:36;2.07;;;0.70;;
9445;SDS011;4761;49.490;10.908;2022-12-29T04:29:01;0.60;;;0.60;;
9445;SDS011;4761;49.490;10.908;2022-12-29T04:31:27;0.73;;;0.73;;
9445;SDS011;4761;49.490;10.908;2022-12-29T04:33:52;0.70;;;0.70;;
9445;SDS011;4761;49.490;10.908;2022-12-29T04:36:18;0.77;;;0.77;;
9445;SDS011;4761;49.490;10.908;2022-12-29T04:38:43;1.10;;;0.80;;
9445;SDS011;4761;49.490;10.908;2022-12-29T04:41:09;0.93;;;0.87;;
9445;SDS011;4761;49.490;10.908;2022-12-29T04:43:34;1.73;;;0.80;;
9445;SDS011;4761;49.490;10.908;2022-12-29T04:46:00;0.83;;;0.83;;
9445;SDS011;4761;49.490;10.908;2022-12-29T04:48:25;1.63;;;0.80;;
9445;SDS011;4761;49.490;10.908;2022-12-29T04:50:51;1.13;;;0.80;;
9445;SDS011;4761;49.490;10.908;2022-12-29T04:53:17;0.77;;;0.77;;
9445;SDS011;4761;49.490;10.908;2022-12-29T04:55:42;0.80;;;0.80;;
9445;SDS011;4761;49.490;10.908;2022-12-29T04:58:08;0.93;;;0.80;;
9445;SDS011;4761;49.490;10.908;2022-12-29T05:00:34;0.60;;;0.60;;
9445;SDS011;4761;49.490;10.908;2022-12-29T05:02:59;1.07;;;0.70;;
9445;SDS011;4761;49.490;10.908;2022-12-29T05:05:25;0.80;;;0.80;;
9445;SDS011;4761;49.490;10.908;2022-12-29T05:07:50;0.80;;;0.80;;
9445;SDS011;4761;49.490;10.908;2022-12-29T05:10:16;0.70;;;0.70;;
9445;SDS011;4761;49.490;10.908;2022-12-29T05:12:42;1.17;;;0.97;;
9445;SDS011;4761;49.490;10.908;2022-12-29T05:15:08;0.80;;;0.70;;
9445;SDS011;4761;49.490;10.908;2022-12-29T05:17:35;0.70;;;0.70;;
9445;SDS011;4761;49.490;10.908;2022-12-29T05:20:00;0.73;;;0.70;;
9445;SDS011;4761;49.490;10.908;2022-12-29T05:22:26;0.70;;;0.70;;
9445;SDS011;4761;49.490;10.908;2022-12-29T05:24:51;0.70;;;0.70;;
9445;SDS011;4761;49.490;10.908;2022-12-29T05:27:17;1.73;;;0.83;;
9445;SDS011;4761;49.490;10.908;2022-12-29T05:29:42;1.73;;;0.83;;
9445;SDS011;4761;49.490;10.908;2022-12-29T05:32:08;0.93;;;0.80;;
9445;SDS011;4761;49.490;10.908;2022-12-29T05:34:34;0.90;;;0.70;;
9445;SDS011;4761;49.490;10.908;2022-12-29T05:36:59;1.33;;;0.90;;
9445;SDS011;4761;49.490;10.908;2022-12-29T05:39:25;0.90;;;0.70;;
9445;SDS011;4761;49.490;10.908;2022-12-29T05:41:51;1.20;;;0.83;;
9445;SDS011;4761;49.490;10.908;2022-12-29T05:44:16;0.87;;;0.80;;
9445;SDS011;4761;49.490;10.908;2022-12-29T05:46:42;1.13;;;0.70;;
9445;SDS011;4761;49.490;10.908;2022-12-29T05:49:07;0.60;;;0.60;;
9445;SDS011;4761;49.490;10.908;2022-12-29T05:51:33;0.80;;;0.80;;
9445;SDS011;4761;49.490;10.908;2022-12-29T05:53:58;0.70;;;0.70;;
9445;SDS011;4761;49.490;10.908;2022-12-29T05:56:24;1.80;;;0.90;;
9445;SDS011;4761;49.490;10.908;2022-12-29T05:58:49;0.93;;;0.73;;
9445;SDS011;4761;49.490;10.908;2022-12-29T06:01:15;0.70;;;0.70;;
9445;SDS011;4761;49.490;10.908;2022-12-29T06:03:40;0.70;;;0.70;;
9445;SDS011;4761;49.490;10.908;2022-12-29T06:06:06;0.67;;;0.63;;
9445;SDS011;4761;49.490;10.908;2022-12-29T06:08:32;0.93;;;0.77;;
9445;SDS011;4761;49.490;10.908;2022-12-29T06:10:58;1.30;;;0.93;;
9445;SDS011;4761;49.490;10.908;2022-12-29T06:13:23;1.00;;;0.60;;
9445;SDS011;4761;49.490;10.908;2022-12-29T06:15:49;0.70;;;0.70;;
9445;SDS011;4761;49.490;10.908;2022-12-29T06:18:15;0.80;;;0.80;;
9445;SDS011;4761;49.490;10.908;2022-12-29T06:20:41;0.70;;;0.70;;
9445;SDS011;4761;49.490;10.908;2022-12-29T06:23:06;0.80;;;0.80;;
9445;SDS011;4761;49.490;10.908;2022-12-29T06:25:32;2.27;;;1.00;;
9445;SDS011;4761;49.490;10.908;2022-12-29T06:27:59;1.00;;;0.90;;
9445;SDS011;4761;49.490;10.908;2022-12-29T06:30:25;1.10;;;0.80;;
9445;SDS011;4761;49.490;10.908;2022-12-29T06:32:50;0.70;;;0.70;;
9445;SDS011;4761;49.490;10.908;2022-12-29T06:35:16;0.97;;;0.57;;
9445;SDS011;4761;49.490;10.908;2022-12-29T06:37:42;1.00;;;0.90;;
9445;SDS011;4761;49.490;10.908;2022-12-29T06:40:08;0.60;;;0.60;;
9445;SDS011;4761;49.490;10.908;2022-12-29T06:42:34;0.77;;;0.77;;
9445;SDS011;4761;49.490;10.908;2022-12-29T06:45:00;0.70;;;0.70;;
9445;SDS011;4761;49.490;10.908;2022-12-29T06:47:25;1.13;;;0.90;;
9445;SDS011;4761;49.490;10.908;2022-12-29T06:49:51;1.43;;;0.87;;
9445;SDS011;4761;49.490;10.908;2022-12-29T06:52:16;0.80;;;0.80;;
9445;SDS011;4761;49.490;10.908;2022-12-29T06:54:42;0.70;;;0.70;;
9445;SDS011;4761;49.490;10.908;2022-12-29T06:57:08;0.80;;;0.80;;
9445;SDS011;4761;49.490;10.908;2022-12-29T06:59:33;1.47;;;0.70;;
9445;SDS011;4761;49.490;10.908;2022-12-29T07:01:59;1.30;;;0.80;;
9445;SDS011;4761;49.490;10.908;2022-12-29T07:04:26;1.27;;;0.80;;
9445;SDS011;4761;49.490;10.908;2022-12-29T07:06:52;1.70;;;1.23;;
9445;SDS011;4761;49.490;10.908;2022-12-29T07:09:18;1.03;;;0.93;;
9445;SDS011;4761;49.490;10.908;2022-12-29T07:11:43;1.87;;;0.90;;
9445;SDS011;4761;49.490;10.908;2022-12-29T07:14:10;1.33;;;1.10;;
9445;SDS011;4761;49.490;10.908;2022-12-29T07:16:36;1.30;;;1.20;;
9445;SDS011;4761;49.490;10.908;2022-12-29T07:19:02;1.83;;;1.30;;
9445;SDS011;4761;49.490;10.908;2022-12-29T07:21:27;1.20;;;1.10;;
9445;SDS011;4761;49.490;10.908;2022-12-29T07:23:53;1.67;;;1.40;;
9445;SDS011;4761;49.490;10.908;2022-12-29T07:26:19;1.27;;;1.10;;
9445;SDS011;4761;49.490;10.908;2022-12-29T07:28:45;2.53;;;1.30;;
9445;SDS011;4761;49.490;10.908;2022-12-29T07:31:15;1.30;;;1.20;;
9445;SDS011;4761;49.490;10.908;2022-12-29T07:33:43;1.93;;;1.20;;
9445;SDS011;4761;49.490;10.908;2022-12-29T07:36:09;1.20;;;1.10;;
9445;SDS011;4761;49.490;10.908;2022-12-29T07:38:35;1.20;;;1.10;;
9445;SDS011;4761;49.490;10.908;2022-12-29T07:41:01;1.20;;;1.10;;
9445;SDS011;4761;49.490;10.908;2022-12-29T07:43:27;1.03;;;0.97;;
9445;SDS011;4761;49.490;10.908;2022-12-29T07:45:52;1.57;;;1.13;;
9445;SDS011;4761;49.490;10.908;2022-12-29T07:48:18;1.40;;;1.10;;
9445;SDS011;4761;49.490;10.908;2022-12-29T07:50:44;1.57;;;1.20;;
9445;SDS011;4761;49.490;10.908;2022-12-29T07:53:09;1.57;;;1.10;;
9445;SDS011;4761;49.490;10.908;2022-12-29T07:55:35;2.13;;;1.10;;
9445;SDS011;4761;49.490;10.908;2022-12-29T07:58:00;1.40;;;1.30;;
9445;SDS011;4761;49.490;10.908;2022-12-29T08:00:26;1.57;;;1.23;;
9445;SDS011;4761;49.490;10.908;2022-12-29T08:02:51;1.63;;;1.17;;
9445;SDS011;4761;49.490;10.908;2022-12-29T08:05:17;2.37;;;1.43;;
9445;SDS011;4761;49.490;10.908;2022-12-29T08:07:43;1.07;;;0.97;;
9445;SDS011;4761;49.490;10.908;2022-12-29T08:10:09;1.63;;;1.20;;
9445;SDS011;4761;49.490;10.908;2022-12-29T08:12:37;1.50;;;1.03;;
9445;SDS011;4761;49.490;10.908;2022-12-29T08:15:03;1.20;;;1.00;;
9445;SDS011;4761;49.490;10.908;2022-12-29T08:17:30;1.37;;;1.10;;
9445;SDS011;4761;49.490;10.908;2022-12-29T08:19:55;1.23;;;1.00;;
9445;SDS011;4761;49.490;10.908;2022-12-29T08:22:21;1.50;;;1.20;;
9445;SDS011;4761;49.490;10.908;2022-12-29T08:24:46;1.43;;;1.00;;
9445;SDS011;4761;49.490;10.908;2022-12-29T08:27:13;2.00;;;0.90;;
9445;SDS011;4761;49.490;10.908;2022-12-29T08:29:38;1.23;;;1.00;;
9445;SDS011;4761;49.490;10.908;2022-12-29T08:32:04;1.67;;;1.10;;
9445;SDS011;4761;49.490;10.908;2022-12-29T08:34:30;1.47;;;1.13;;
9445;SDS011;4761;49.490;10.908;2022-12-29T08:36:56;1.20;;;1.10;;
9445;SDS011;4761;49.490;10.908;2022-12-29T08:39:22;1.53;;;1.13;;
9445;SDS011;4761;49.490;10.908;2022-12-29T08:41:47;1.77;;;1.30;;
9445;SDS011;4761;49.490;10.908;2022-12-29T08:44:13;1.47;;;1.30;;
9445;SDS011;4761;49.490;10.908;2022-12-29T08:46:38;1.37;;;1.00;;
9445;SDS011;4761;49.490;10.908;2022-12-29T08:49:04;1.53;;;1.10;;
9445;SDS011;4761;49.490;10.908;2022-12-29T08:51:30;1.70;;;1.30;;
9445;SDS011;4761;49.490;10.908;2022-12-29T08:53:55;1.10;;;1.00;;
9445;SDS011;4761;49.490;10.908;2022-12-29T08:56:21;1.63;;;1.20;;
9445;SDS011;4761;49.490;10.908;2022-12-29T08:58:48;3.20;;;1.43;;
9445;SDS011;4761;49.490;10.908;2022-12-29T09:01:14;0.70;;;0.70;;
9445;SDS011;4761;49.490;10.908;2022-12-29T09:03:40;2.70;;;0.90;;
9445;SDS011;4761;49.490;10.908;2022-12-29T09:06:05;1.00;;;0.80;;
9445;SDS011;4761;49.490;10.908;2022-12-29T09:08:31;0.70;;;0.70;;
9445;SDS011;4761;49.490;10.908;2022-12-29T09:11:05;0.87;;;0.73;;
9445;SDS011;4761;49.490;10.908;2022-12-29T09:13:32;1.20;;;0.63;;
9445;SDS011;4761;49.490;10.908;2022-12-29T09:15:58;1.00;;;0.90;;
9445;SDS011;4761;49.490;10.908;2022-12-29T09:18:24;0.70;;;0.70;;
9445;SDS011;4761;49.490;10.908;2022-12-29T09:20:55;1.10;;;1.00;;
9445;SDS011;4761;49.490;10.908;2022-12-29T09:23:24;1.00;;;0.90;;
9445;SDS011;4761;49.490;10.908;2022-12-29T09:25:50;0.70;;;0.70;;
9445;SDS011;4761;49.490;10.908;2022-12-29T09:28:16;1.00;;;0.90;;
9445;SDS011;4761;49.490;10.908;2022-12-29T09:30:41;1.77;;;0.80;;
9445;SDS011;4761;49.490;10.908;2022-12-29T09:33:07;0.87;;;0.87;;
9445;SDS011;4761;49.490;10.908;2022-12-29T09:35:33;0.67;;;0.67;;
9445;SDS011;4761;49.490;10.908;2022-12-29T09:37:58;1.53;;;0.93;;
9445;SDS011;4761;49.490;10.908;2022-12-29T09:40:28;0.80;;;0.70;;
9445;SDS011;4761;49.490;10.908;2022-12-29T09:46:07;0.80;;;0.80;;
9445;SDS011;4761;49.490;10.908;2022-12-29T09:52:05;0.80;;;0.70;;
9445;SDS011;4761;49.490;10.908;2022-12-29T09:54:39;0.83;;;0.80;;
9445;SDS011;4761;49.490;10.908;2022-12-29T09:57:28;0.93;;;0.70;;
9445;SDS011;4761;49.490;10.908;2022-12-29T10:00:20;0.87;;;0.83;;
9445;SDS011;4761;49.490;10.908;2022-12-29T10:02:58;1.00;;;0.70;;
9445;SDS011;4761;49.490;10.908;2022-12-29T10:05:31;1.00;;;0.70;;
9445;SDS011;4761;49.490;10.908;2022-12-29T10:08:16;1.17;;;0.90;;
9445;SDS011;4761;49.490;10.908;2022-12-29T10:10:52;0.77;;;0.77;;
9445;SDS011;4761;49.490;10.908;2022-12-29T10:14:08;1.17;;;0.97;;
9445;SDS011;4761;49.490;10.908;2022-12-29T10:22:36;1.00;;;0.90;;
9445;SDS011;4761;49.490;10.908;2022-12-29T10:25:09;1.13;;;1.03;;
9445;SDS011;4761;49.490;10.908;2022-12-29T10:27:43;1.03;;;0.73;;
9445;SDS011;4761;49.490;10.908;2022-12-29T10:30:12;0.93;;;0.80;;
9445;SDS011;4761;49.490;10.908;2022-12-29T10:32:39;1.30;;;0.90;;
9445;SDS011;4761;49.490;10.908;2022-12-29T10:35:35;0.80;;;0.80;;
9445;SDS011;4761;49.490;10.908;2022-12-29T10:40:45;0.83;;;0.83;;
9445;SDS011;4761;49.490;10.908;2022-12-29T10:45:56;1.13;;;0.80;;
9445;SDS011;4761;49.490;10.908;2022-12-29T10:48:34;1.20;;;0.90;;
9445;SDS011;4761;49.490;10.908;2022-12-29T10:51:01;1.10;;;0.87;;
9445;SDS011;4761;49.490;10.908;2022-12-29T10:53:38;1.03;;;0.90;;
9445;SDS011;4761;49.490;10.908;2022-12-29T10:56:15;1.13;;;0.97;;
9445;SDS011;4761;49.490;10.908;2022-12-29T10:59:19;0.87;;;0.83;;
9445;SDS011;4761;49.490;10.908;2022-12-29T11:07:24;2.30;;;0.90;;
9445;SDS011;4761;49.490;10.908;2022-12-29T11:09:51;2.13;;;1.00;;
9445;SDS011;4761;49.490;10.908;2022-12-29T11:12:18;0.77;;;0.70;;
9445;SDS011;4761;49.490;10.908;2022-12-29T11:14:47;0.87;;;0.87;;
9445;SDS011;4761;49.490;10.908;2022-12-29T11:17:24;1.53;;;0.90;;
9445;SDS011;4761;49.490;10.908;2022-12-29T11:19:51;0.83;;;0.80;;
9445;SDS011;4761;49.490;10.908;2022-12-29T11:22:24;0.93;;;0.83;;
9445;SDS011;4761;49.490;10.908;2022-12-29T11:24:52;1.37;;;0.77;;
9445;SDS011;4761;49.490;10.908;2022-12-29T11:27:20;0.80;;;0.70;;
9445;SDS011;4761;49.490;10.908;2022-12-29T11:29:48;0.80;;;0.80;;
9445;SDS011;4761;49.490;10.908;2022-12-29T11:32:19;0.90;;;0.80;;
9445;SDS011;4761;49.490;10.908;2022-12-29T11:34:46;0.67;;;0.67;;
9445;SDS011;4761;49.490;10.908;2022-12-29T11:37:13;0.87;;;0.87;;
9445;SDS011;4761;49.490;10.908;2022-12-29T11:42:39;1.40;;;0.90;;
9445;SDS011;4761;49.490;10.908;2022-12-29T11:45:15;1.00;;;0.90;;
9445;SDS011;4761;49.490;10.908;2022-12-29T11:47:43;1.30;;;0.90;;
9445;SDS011;4761;49.490;10.908;2022-12-29T11:50:15;1.13;;;0.90;;
9445;SDS011;4761;49.490;10.908;2022-12-29T11:52:43;1.43;;;0.77;;
9445;SDS011;4761;49.490;10.908;2022-12-29T11:55:16;0.83;;;0.80;;
9445;SDS011;4761;49.490;10.908;2022-12-29T11:57:45;0.90;;;0.80;;
9445;SDS011;4761;49.490;10.908;2022-12-29T12:00:21;1.03;;;0.87;;
9445;SDS011;4761;49.490;10.908;2022-12-29T12:05:50;1.70;;;1.20;;
9445;SDS011;4761;49.490;10.908;2022-12-29T12:10:48;1.57;;;1.13;;
9445;SDS011;4761;49.490;10.908;2022-12-29T12:13:25;2.17;;;1.20;;
9445;SDS011;4761;49.490;10.908;2022-12-29T12:16:18;1.50;;;1.40;;
9445;SDS011;4761;49.490;10.908;2022-12-29T12:18:46;3.33;;;1.60;;
9445;SDS011;4761;49.490;10.908;2022-12-29T12:21:20;2.20;;;1.47;;
9445;SDS011;4761;49.490;10.908;2022-12-29T12:24:31;2.27;;;1.40;;
9445;SDS011;4761;49.490;10.908;2022-12-29T12:27:20;2.33;;;1.20;;
9445;SDS011;4761;49.490;10.908;2022-12-29T12:30:09;1.50;;;1.27;;
9445;SDS011;4761;49.490;10.908;2022-12-29T12:32:46;1.57;;;1.20;;
9445;SDS011;4761;49.490;10.908;2022-12-29T12:38:17;1.20;;;1.10;;
9445;SDS011;4761;49.490;10.908;2022-12-29T12:43:29;1.87;;;1.30;;
9445;SDS011;4761;49.490;10.908;2022-12-29T12:48:54;1.97;;;1.50;;
9445;SDS011;4761;49.490;10.908;2022-12-29T12:51:30;1.40;;;1.30;;
9445;SDS011;4761;49.490;10.908;2022-12-29T12:56:55;1.43;;;1.10;;
9445;SDS011;4761;49.490;10.908;2022-12-29T13:05:16;0.93;;;0.83;;
9445;SDS011;4761;49.490;10.908;2022-12-29T13:16:21;0.87;;;0.87;;
9445;SDS011;4761;49.490;10.908;2022-12-29T13:21:54;1.00;;;0.90;;
9445;SDS011;4761;49.490;10.908;2022-12-29T13:30:35;1.00;;;0.90;;
9445;SDS011;4761;49.490;10.908;2022-12-29T13:38:40;0.93;;;0.90;;
9445;SDS011;4761;49.490;10.908;2022-12-29T13:41:11;0.80;;;0.80;;
9445;SDS011;4761;49.490;10.908;2022-12-29T13:43:43;0.80;;;0.80;;
9445;SDS011;4761;49.490;10.908;2022-12-29T13:46:16;1.70;;;1.30;;
9445;SDS011;4761;49.490;10.908;2022-12-29T13:48:48;1.37;;;0.90;;
9445;SDS011;4761;49.490;10.908;2022-12-29T13:51:16;1.00;;;0.90;;
9445;SDS011;4761;49.490;10.908;2022-12-29T13:59:17;1.30;;;1.00;;
9445;SDS011;4761;49.490;10.908;2022-12-29T14:04:21;1.53;;;1.20;;
9445;SDS011;4761;49.490;10.908;2022-12-29T14:06:58;0.93;;;0.90;;
9445;SDS011;4761;49.490;10.908;2022-12-29T14:09:47;1.33;;;1.00;;
9445;SDS011;4761;49.490;10.908;2022-12-29T14:14:45;0.97;;;0.80;;
9445;SDS011;4761;49.490;10.908;2022-12-29T14:17:11;1.97;;;0.90;;
9445;SDS011;4761;49.490;10.908;2022-12-29T14:19:39;1.10;;;0.90;;
9445;SDS011;4761;49.490;10.908;2022-12-29T14:22:08;1.10;;;1.00;;
9445;SDS011;4761;49.490;10.908;2022-12-29T14:24:40;1.10;;;0.90;;
9445;SDS011;4761;49.490;10.908;2022-12-29T14:34:46;0.97;;;0.90;;
9445;SDS011;4761;49.490;10.908;2022-12-29T14:42:49;0.90;;;0.90;;
9445;SDS011;4761;49.490;10.908;2022-12-29T14:47:43;0.80;;;0.80;;
9445;SDS011;4761;49.490;10.908;2022-12-29T14:50:15;1.00;;;0.80;;
9445;SDS011;4761;49.490;10.908;2022-12-29T14:58:17;0.80;;;0.80;;
9445;SDS011;4761;49.490;10.908;2022-12-29T15:00:54;1.03;;;1.00;;
9445;SDS011;4761;49.490;10.908;2022-12-29T15:03:25;1.23;;;0.90;;
9445;SDS011;4761;49.490;10.908;2022-12-29T15:05:58;1.20;;;1.00;;
9445;SDS011;4761;49.490;10.908;2022-12-29T15:08:30;1.67;;;1.10;;
9445;SDS011;4761;49.490;10.908;2022-12-29T15:11:14;1.30;;;1.20;;
9445;SDS011;4761;49.490;10.908;2022-12-29T15:13:46;0.90;;;0.80;;
9445;SDS011;4761;49.490;10.908;2022-12-29T15:16:24;1.07;;;1.00;;
9445;SDS011;4761;49.490;10.908;2022-12-29T15:18:53;1.00;;;0.90;;
9445;SDS011;4761;49.490;10.908;2022-12-29T15:21:21;1.30;;;1.20;;
9445;SDS011;4761;49.490;10.908;2022-12-29T15:23:52;1.70;;;1.07;;
9445;SDS011;4761;49.490;10.908;2022-12-29T15:26:18;1.10;;;1.00;;
9445;SDS011;4761;49.490;10.908;2022-12-29T15:28:51;1.50;;;0.90;;
9445;SDS011;4761;49.490;10.908;2022-12-29T15:33:50;1.47;;;1.10;;
9445;SDS011;4761;49.490;10.908;2022-12-29T15:36:23;1.40;;;1.00;;
9445;SDS011;4761;49.490;10.908;2022-12-29T15:38:51;2.13;;;1.00;;
9445;SDS011;4761;49.490;10.908;2022-12-29T15:43:53;1.73;;;1.10;;
9445;SDS011;4761;49.490;10.908;2022-12-29T15:46:32;1.07;;;0.80;;
9445;SDS011;4761;49.490;10.908;2022-12-29T15:48:57;1.00;;;0.70;;
9445;SDS011;4761;49.490;10.908;2022-12-29T15:51:28;1.23;;;1.00;;
9445;SDS011;4761;49.490;10.908;2022-12-29T15:53:57;1.43;;;1.10;;
9445;SDS011;4761;49.490;10.908;2022-12-29T15:56:23;1.13;;;1.03;;
9445;SDS011;4761;49.490;10.908;2022-12-29T15:58:50;1.40;;;0.97;;
9445;SDS011;4761;49.490;10.908;2022-12-29T16:01:30;0.90;;;0.90;;
9445;SDS011;4761;49.490;10.908;2022-12-29T16:03:58;1.10;;;1.00;;
9445;SDS011;4761;49.490;10.908;2022-12-29T16:06:37;1.10;;;1.00;;
9445;SDS011;4761;49.490;10.908;2022-12-29T16:09:18;1.33;;;1.20;;
9445;SDS011;4761;49.490;10.908;2022-12-29T16:11:53;2.00;;;1.23;;
9445;SDS011;4761;49.490;10.908;2022-12-29T16:14:24;1.10;;;1.00;;
9445;SDS011;4761;49.490;10.908;2022-12-29T16:17:09;1.30;;;1.20;;
9445;SDS011;4761;49.490;10.908;2022-12-29T16:19:39;1.20;;;1.10;;
9445;SDS011;4761;49.490;10.908;2022-12-29T16:22:12;1.63;;;1.17;;
9445;SDS011;4761;49.490;10.908;2022-12-29T16:24:42;1.20;;;1.03;;
9445;SDS011;4761;49.490;10.908;2022-12-29T16:27:09;1.60;;;1.13;;
9445;SDS011;4761;49.490;10.908;2022-12-29T16:29:48;1.23;;;1.13;;
9445;SDS011;4761;49.490;10.908;2022-12-29T16:32:29;1.13;;;1.03;;
9445;SDS011;4761;49.490;10.908;2022-12-29T16:37:44;1.70;;;1.10;;
9445;SDS011;4761;49.490;10.908;2022-12-29T16:42:59;1.23;;;1.10;;
9445;SDS011;4761;49.490;10.908;2022-12-29T16:50:39;2.40;;;1.10;;
9445;SDS011;4761;49.490;10.908;2022-12-29T16:53:29;1.30;;;1.20;;
9445;SDS011;4761;49.490;10.908;2022-12-29T16:56:02;1.70;;;1.47;;
9445;SDS011;4761;49.490;10.908;2022-12-29T16:58:39;1.73;;;1.33;;
9445;SDS011;4761;49.490;10.908;2022-12-29T17:01:06;1.60;;;1.33;;
9445;SDS011;4761;49.490;10.908;2022-12-29T17:03:40;1.27;;;0.97;;
9445;SDS011;4761;49.490;10.908;2022-12-29T17:06:16;1.50;;;1.20;;
9445;SDS011;4761;49.490;10.908;2022-12-29T17:08:43;2.03;;;1.30;;
9445;SDS011;4761;49.490;10.908;2022-12-29T17:11:18;1.47;;;1.27;;
9445;SDS011;4761;49.490;10.908;2022-12-29T17:14:18;2.77;;;1.20;;
9445;SDS011;4761;49.490;10.908;2022-12-29T17:16:44;1.67;;;1.37;;
9445;SDS011;4761;49.490;10.908;2022-12-29T17:19:14;1.63;;;1.47;;
9445;SDS011;4761;49.490;10.908;2022-12-29T17:21:42;1.73;;;1.20;;
9445;SDS011;4761;49.490;10.908;2022-12-29T17:24:13;1.40;;;1.10;;
9445;SDS011;4761;49.490;10.908;2022-12-29T17:26:41;1.57;;;1.20;;
9445;SDS011;4761;49.490;10.908;2022-12-29T17:29:09;3.03;;;1.27;;
9445;SDS011;4761;49.490;10.908;2022-12-29T17:32:02;1.53;;;1.20;;
9445;SDS011;4761;49.490;10.908;2022-12-29T17:34:30;1.20;;;1.10;;
9445;SDS011;4761;49.490;10.908;2022-12-29T17:36:56;1.40;;;1.17;;
9445;SDS011;4761;49.490;10.908;2022-12-29T17:39:22;1.77;;;1.40;;
9445;SDS011;4761;49.490;10.908;2022-12-29T17:41:47;1.50;;;1.30;;
9445;SDS011;4761;49.490;10.908;2022-12-29T17:44:17;1.60;;;1.30;;
9445;SDS011;4761;49.490;10.908;2022-12-29T17:46:44;1.90;;;1.50;;
9445;SDS011;4761;49.490;10.908;2022-12-29T17:49:14;1.60;;;1.50;;